sensor_id;sensor_type;location;lat;lon;timestamp;P1;durP1;ratioP1;P2;durP2;ratioP2
43994;SDS011;51687;52.160;5.298;2023-06-26T00:02:17;5.95;;;5.45;;
43994;SDS011;51687;52.160;5.298;2023-06-26T00:04:44;5.68;;;5.28;;
43994;SDS011;51687;52.160;5.298;2023-06-26T00:07:10;5.88;;;5.47;;
43994;SDS011;51687;52.160;5.298;2023-06-26T00:09:37;5.20;;;4.80;;
43994;SDS011;51687;52.160;5.298;2023-06-26T00:12:04;5.60;;;5.13;;
43994;SDS011;51687;52.160;5.298;2023-06-26T00:14:31;6.77;;;5.63;;
43994;SDS011;51687;52.160;5.298;2023-06-26T00:16:58;7.30;;;5.50;;
43994;SDS011;51687;52.160;5.298;2023-06-26T00:19:24;5.50;;;5.00;;
43994;SDS011;51687;52.160;5.298;2023-06-26T00:21:51;6.07;;;5.57;;
43994;SDS011;51687;52.160;5.298;2023-06-26T00:24:18;6.10;;;5.60;;
43994;SDS011;51687;52.160;5.298;2023-06-26T00:26:46;5.73;;;5.33;;
43994;SDS011;51687;52.160;5.298;2023-06-26T00:31:40;6.53;;;5.93;;
43994;SDS011;51687;52.160;5.298;2023-06-26T00:34:07;5.80;;;5.30;;
43994;SDS011;51687;52.160;5.298;2023-06-26T00:36:33;5.78;;;5.38;;
43994;SDS011;51687;52.160;5.298;2023-06-26T00:39:00;5.38;;;5.07;;
43994;SDS011;51687;52.160;5.298;2023-06-26T00:41:27;5.60;;;5.15;;
43994;SDS011;51687;52.160;5.298;2023-06-26T00:43:54;5.30;;;4.90;;
43994;SDS011;51687;52.160;5.298;2023-06-26T00:46:23;6.13;;;5.63;;
43994;SDS011;51687;52.160;5.298;2023-06-26T00:48:50;7.03;;;5.78;;
43994;SDS011;51687;52.160;5.298;2023-06-26T00:51:18;6.30;;;5.80;;
43994;SDS011;51687;52.160;5.298;2023-06-26T00:53:45;5.88;;;5.40;;
43994;SDS011;51687;52.160;5.298;2023-06-26T00:56:12;6.35;;;5.90;;
43994;SDS011;51687;52.160;5.298;2023-06-26T00:58:39;6.57;;;6.10;;
43994;SDS011;51687;52.160;5.298;2023-06-26T01:01:05;5.97;;;5.57;;
43994;SDS011;51687;52.160;5.298;2023-06-26T01:03:35;5.65;;;5.25;;
43994;SDS011;51687;52.160;5.298;2023-06-26T01:06:06;5.80;;;5.40;;
43994;SDS011;51687;52.160;5.298;2023-06-26T01:08:35;6.57;;;5.47;;
43994;SDS011;51687;52.160;5.298;2023-06-26T01:11:02;5.97;;;5.53;;
43994;SDS011;51687;52.160;5.298;2023-06-26T01:13:29;5.68;;;5.28;;
43994;SDS011;51687;52.160;5.298;2023-06-26T01:15:59;5.93;;;5.53;;
43994;SDS011;51687;52.160;5.298;2023-06-26T01:18:28;7.03;;;5.53;;
43994;SDS011;51687;52.160;5.298;2023-06-26T01:20:57;6.82;;;6.13;;
43994;SDS011;51687;52.160;5.298;2023-06-26T01:29:02;5.95;;;5.53;;
43994;SDS011;51687;52.160;5.298;2023-06-26T01:31:32;6.00;;;5.55;;
43994;SDS011;51687;52.160;5.298;2023-06-26T01:34:00;5.38;;;4.97;;
43994;SDS011;51687;52.160;5.298;2023-06-26T01:36:28;5.47;;;4.97;;
43994;SDS011;51687;52.160;5.298;2023-06-26T01:38:55;10.40;;;4.78;;
43994;SDS011;51687;52.160;5.298;2023-06-26T01:41:22;11.20;;;4.75;;
43994;SDS011;51687;52.160;5.298;2023-06-26T01:43:56;4.90;;;4.30;;
43994;SDS011;51687;52.160;5.298;2023-06-26T01:46:36;4.28;;;3.97;;
43994;SDS011;51687;52.160;5.298;2023-06-26T01:55:28;6.03;;;4.00;;
43994;SDS011;51687;52.160;5.298;2023-06-26T01:57:43;5.30;;;4.43;;
43994;SDS011;51687;52.160;5.298;2023-06-26T02:00:14;4.40;;;3.90;;
43994;SDS011;51687;52.160;5.298;2023-06-26T02:02:44;4.30;;;3.90;;
43994;SDS011;51687;52.160;5.298;2023-06-26T02:05:11;4.03;;;3.60;;
43994;SDS011;51687;52.160;5.298;2023-06-26T02:10:06;16.17;;;5.35;;
43994;SDS011;51687;52.160;5.298;2023-06-26T02:12:34;5.70;;;4.43;;
43994;SDS011;51687;52.160;5.298;2023-06-26T02:15:02;6.53;;;4.40;;
43994;SDS011;51687;52.160;5.298;2023-06-26T02:17:33;5.28;;;4.22;;
43994;SDS011;51687;52.160;5.298;2023-06-26T02:20:00;5.20;;;4.00;;
43994;SDS011;51687;52.160;5.298;2023-06-26T02:22:27;4.78;;;4.20;;
43994;SDS011;51687;52.160;5.298;2023-06-26T02:24:54;4.30;;;3.90;;
43994;SDS011;51687;52.160;5.298;2023-06-26T02:27:21;5.85;;;3.83;;
43994;SDS011;51687;52.160;5.298;2023-06-26T02:29:48;4.82;;;3.97;;
43994;SDS011;51687;52.160;5.298;2023-06-26T02:32:15;8.10;;;3.95;;
43994;SDS011;51687;52.160;5.298;2023-06-26T02:34:41;5.85;;;4.57;;
43994;SDS011;51687;52.160;5.298;2023-06-26T02:37:09;6.82;;;4.18;;
43994;SDS011;51687;52.160;5.298;2023-06-26T02:42:04;6.40;;;4.05;;
43994;SDS011;51687;52.160;5.298;2023-06-26T02:46:58;8.55;;;4.00;;
43994;SDS011;51687;52.160;5.298;2023-06-26T02:49:25;5.72;;;3.70;;
43994;SDS011;51687;52.160;5.298;2023-06-26T02:51:51;10.10;;;4.60;;
43994;SDS011;51687;52.160;5.298;2023-06-26T02:54:18;7.03;;;4.00;;
43994;SDS011;51687;52.160;5.298;2023-06-26T02:56:45;6.45;;;3.90;;
43994;SDS011;51687;52.160;5.298;2023-06-26T02:59:13;4.95;;;4.05;;
43994;SDS011;51687;52.160;5.298;2023-06-26T03:01:40;8.30;;;4.45;;
43994;SDS011;51687;52.160;5.298;2023-06-26T03:04:07;7.90;;;4.35;;
43994;SDS011;51687;52.160;5.298;2023-06-26T03:06:34;8.40;;;4.22;;
43994;SDS011;51687;52.160;5.298;2023-06-26T03:09:01;6.35;;;4.32;;
43994;SDS011;51687;52.160;5.298;2023-06-26T03:11:28;7.28;;;4.10;;
43994;SDS011;51687;52.160;5.298;2023-06-26T03:13:55;8.15;;;4.53;;
43994;SDS011;51687;52.160;5.298;2023-06-26T03:16:22;6.55;;;4.13;;
43994;SDS011;51687;52.160;5.298;2023-06-26T03:18:49;7.47;;;4.28;;
43994;SDS011;51687;52.160;5.298;2023-06-26T03:21:16;7.50;;;4.43;;
43994;SDS011;51687;52.160;5.298;2023-06-26T03:23:43;13.80;;;4.68;;
43994;SDS011;51687;52.160;5.298;2023-06-26T03:26:10;9.40;;;4.53;;
43994;SDS011;51687;52.160;5.298;2023-06-26T03:28:37;10.48;;;4.93;;
43994;SDS011;51687;52.160;5.298;2023-06-26T03:31:04;9.45;;;4.82;;
43994;SDS011;51687;52.160;5.298;2023-06-26T03:33:30;7.25;;;4.53;;
43994;SDS011;51687;52.160;5.298;2023-06-26T03:35:58;9.60;;;4.80;;
43994;SDS011;51687;52.160;5.298;2023-06-26T03:38:25;8.07;;;4.75;;
43994;SDS011;51687;52.160;5.298;2023-06-26T03:40:53;9.20;;;4.97;;
43994;SDS011;51687;52.160;5.298;2023-06-26T03:43:20;7.22;;;4.53;;
43994;SDS011;51687;52.160;5.298;2023-06-26T03:45:46;8.35;;;4.40;;
43994;SDS011;51687;52.160;5.298;2023-06-26T03:48:13;8.30;;;5.03;;
43994;SDS011;51687;52.160;5.298;2023-06-26T03:50:40;10.55;;;4.97;;
43994;SDS011;51687;52.160;5.298;2023-06-26T03:53:07;13.93;;;5.07;;
43994;SDS011;51687;52.160;5.298;2023-06-26T03:55:34;16.48;;;5.25;;
43994;SDS011;51687;52.160;5.298;2023-06-26T03:58:00;13.27;;;5.78;;
43994;SDS011;51687;52.160;5.298;2023-06-26T04:00:27;10.85;;;5.43;;
43994;SDS011;51687;52.160;5.298;2023-06-26T04:02:54;12.50;;;5.28;;
43994;SDS011;51687;52.160;5.298;2023-06-26T04:05:21;9.45;;;5.03;;
43994;SDS011;51687;52.160;5.298;2023-06-26T04:07:54;13.63;;;5.65;;
43994;SDS011;51687;52.160;5.298;2023-06-26T04:10:21;8.88;;;4.75;;
43994;SDS011;51687;52.160;5.298;2023-06-26T04:12:48;12.23;;;5.18;;
43994;SDS011;51687;52.160;5.298;2023-06-26T04:15:15;10.82;;;5.35;;
43994;SDS011;51687;52.160;5.298;2023-06-26T04:17:41;8.80;;;4.95;;
43994;SDS011;51687;52.160;5.298;2023-06-26T04:20:08;11.40;;;5.03;;
43994;SDS011;51687;52.160;5.298;2023-06-26T04:22:35;13.63;;;5.15;;
43994;SDS011;51687;52.160;5.298;2023-06-26T04:25:02;13.00;;;5.40;;
43994;SDS011;51687;52.160;5.298;2023-06-26T04:27:30;9.45;;;4.80;;
43994;SDS011;51687;52.160;5.298;2023-06-26T04:29:57;9.98;;;5.18;;
43994;SDS011;51687;52.160;5.298;2023-06-26T04:32:23;9.80;;;4.80;;
43994;SDS011;51687;52.160;5.298;2023-06-26T04:34:50;11.70;;;5.00;;
43994;SDS011;51687;52.160;5.298;2023-06-26T04:37:17;11.43;;;4.90;;
43994;SDS011;51687;52.160;5.298;2023-06-26T04:39:44;10.00;;;5.25;;
43994;SDS011;51687;52.160;5.298;2023-06-26T04:42:10;8.07;;;4.22;;
43994;SDS011;51687;52.160;5.298;2023-06-26T04:44:38;10.13;;;4.47;;
43994;SDS011;51687;52.160;5.298;2023-06-26T04:47:07;9.23;;;4.82;;
43994;SDS011;51687;52.160;5.298;2023-06-26T04:49:35;9.82;;;4.63;;
43994;SDS011;51687;52.160;5.298;2023-06-26T04:52:04;12.60;;;4.68;;
43994;SDS011;51687;52.160;5.298;2023-06-26T04:54:31;10.38;;;4.35;;
43994;SDS011;51687;52.160;5.298;2023-06-26T04:56:59;8.93;;;4.72;;
43994;SDS011;51687;52.160;5.298;2023-06-26T05:01:52;8.20;;;4.50;;
43994;SDS011;51687;52.160;5.298;2023-06-26T05:04:20;9.45;;;4.60;;
43994;SDS011;51687;52.160;5.298;2023-06-26T05:06:49;10.00;;;5.20;;
43994;SDS011;51687;52.160;5.298;2023-06-26T05:09:16;7.53;;;4.30;;
43994;SDS011;51687;52.160;5.298;2023-06-26T05:11:43;8.20;;;4.22;;
43994;SDS011;51687;52.160;5.298;2023-06-26T05:14:09;10.05;;;4.20;;
43994;SDS011;51687;52.160;5.298;2023-06-26T05:16:37;5.95;;;4.00;;
43994;SDS011;51687;52.160;5.298;2023-06-26T05:19:04;7.03;;;4.10;;
43994;SDS011;51687;52.160;5.298;2023-06-26T05:21:30;8.13;;;4.10;;
43994;SDS011;51687;52.160;5.298;2023-06-26T05:23:57;5.80;;;3.13;;
43994;SDS011;51687;52.160;5.298;2023-06-26T05:26:25;6.10;;;3.25;;
43994;SDS011;51687;52.160;5.298;2023-06-26T05:28:52;9.18;;;3.45;;
43994;SDS011;51687;52.160;5.298;2023-06-26T05:31:21;3.63;;;2.73;;
43994;SDS011;51687;52.160;5.298;2023-06-26T05:33:48;5.05;;;2.55;;
43994;SDS011;51687;52.160;5.298;2023-06-26T05:36:16;6.20;;;3.00;;
43994;SDS011;51687;52.160;5.298;2023-06-26T05:38:45;5.38;;;3.05;;
43994;SDS011;51687;52.160;5.298;2023-06-26T05:41:12;7.60;;;2.83;;
43994;SDS011;51687;52.160;5.298;2023-06-26T05:43:39;5.20;;;3.10;;
43994;SDS011;51687;52.160;5.298;2023-06-26T05:46:06;3.80;;;2.45;;
43994;SDS011;51687;52.160;5.298;2023-06-26T05:48:33;4.38;;;2.30;;
43994;SDS011;51687;52.160;5.298;2023-06-26T05:51:00;4.63;;;2.40;;
43994;SDS011;51687;52.160;5.298;2023-06-26T05:53:27;3.97;;;2.38;;
43994;SDS011;51687;52.160;5.298;2023-06-26T05:55:56;3.40;;;2.40;;
43994;SDS011;51687;52.160;5.298;2023-06-26T05:58:24;3.35;;;2.25;;
43994;SDS011;51687;52.160;5.298;2023-06-26T06:00:53;5.93;;;2.30;;
43994;SDS011;51687;52.160;5.298;2023-06-26T06:03:20;3.08;;;2.15;;
43994;SDS011;51687;52.160;5.298;2023-06-26T06:05:48;4.23;;;2.03;;
43994;SDS011;51687;52.160;5.298;2023-06-26T06:08:14;3.33;;;1.98;;
43994;SDS011;51687;52.160;5.298;2023-06-26T06:10:41;2.78;;;1.98;;
43994;SDS011;51687;52.160;5.298;2023-06-26T06:13:08;2.92;;;2.10;;
43994;SDS011;51687;52.160;5.298;2023-06-26T06:15:35;2.72;;;1.80;;
43994;SDS011;51687;52.160;5.298;2023-06-26T06:18:01;3.35;;;1.88;;
43994;SDS011;51687;52.160;5.298;2023-06-26T06:20:29;4.80;;;2.35;;
43994;SDS011;51687;52.160;5.298;2023-06-26T06:22:56;4.13;;;2.03;;
43994;SDS011;51687;52.160;5.298;2023-06-26T06:25:22;5.53;;;2.00;;
43994;SDS011;51687;52.160;5.298;2023-06-26T06:27:49;4.05;;;2.00;;
43994;SDS011;51687;52.160;5.298;2023-06-26T06:30:16;6.22;;;2.50;;
43994;SDS011;51687;52.160;5.298;2023-06-26T06:32:51;4.22;;;2.25;;
43994;SDS011;51687;52.160;5.298;2023-06-26T06:35:19;4.28;;;2.22;;
43994;SDS011;51687;52.160;5.298;2023-06-26T06:37:48;3.75;;;2.10;;
43994;SDS011;51687;52.160;5.298;2023-06-26T06:40:15;6.63;;;2.40;;
43994;SDS011;51687;52.160;5.298;2023-06-26T06:42:42;3.05;;;1.63;;
43994;SDS011;51687;52.160;5.298;2023-06-26T06:45:09;2.42;;;2.17;;
43994;SDS011;51687;52.160;5.298;2023-06-26T06:47:36;4.22;;;1.73;;
43994;SDS011;51687;52.160;5.298;2023-06-26T06:50:04;2.87;;;1.80;;
43994;SDS011;51687;52.160;5.298;2023-06-26T06:52:38;6.32;;;2.70;;
43994;SDS011;51687;52.160;5.298;2023-06-26T06:55:07;5.45;;;2.28;;
43994;SDS011;51687;52.160;5.298;2023-06-26T06:57:37;4.70;;;2.58;;
43994;SDS011;51687;52.160;5.298;2023-06-26T07:00:09;4.57;;;2.00;;
43994;SDS011;51687;52.160;5.298;2023-06-26T07:02:38;6.05;;;2.35;;
43994;SDS011;51687;52.160;5.298;2023-06-26T07:05:06;3.30;;;1.95;;
43994;SDS011;51687;52.160;5.298;2023-06-26T07:07:33;2.88;;;2.10;;
43994;SDS011;51687;52.160;5.298;2023-06-26T07:12:30;4.72;;;2.70;;
43994;SDS011;51687;52.160;5.298;2023-06-26T07:14:57;5.82;;;2.50;;
43994;SDS011;51687;52.160;5.298;2023-06-26T07:17:24;10.00;;;2.55;;
43994;SDS011;51687;52.160;5.298;2023-06-26T07:19:50;4.80;;;2.75;;
43994;SDS011;51687;52.160;5.298;2023-06-26T07:22:17;5.35;;;2.67;;
43994;SDS011;51687;52.160;5.298;2023-06-26T07:24:47;6.22;;;2.53;;
43994;SDS011;51687;52.160;5.298;2023-06-26T07:27:15;4.00;;;2.70;;
43994;SDS011;51687;52.160;5.298;2023-06-26T07:29:42;4.47;;;2.47;;
43994;SDS011;51687;52.160;5.298;2023-06-26T07:32:09;3.05;;;2.22;;
43994;SDS011;51687;52.160;5.298;2023-06-26T07:34:39;5.85;;;2.70;;
43994;SDS011;51687;52.160;5.298;2023-06-26T07:37:06;5.18;;;2.35;;
43994;SDS011;51687;52.160;5.298;2023-06-26T07:39:33;5.50;;;2.77;;
43994;SDS011;51687;52.160;5.298;2023-06-26T07:42:00;4.97;;;2.03;;
43994;SDS011;51687;52.160;5.298;2023-06-26T07:44:27;4.75;;;2.60;;
43994;SDS011;51687;52.160;5.298;2023-06-26T07:46:54;4.07;;;2.25;;
43994;SDS011;51687;52.160;5.298;2023-06-26T07:49:21;7.72;;;2.58;;
43994;SDS011;51687;52.160;5.298;2023-06-26T07:51:48;6.00;;;2.78;;
43994;SDS011;51687;52.160;5.298;2023-06-26T07:54:14;4.13;;;1.95;;
43994;SDS011;51687;52.160;5.298;2023-06-26T07:59:24;5.88;;;2.92;;
43994;SDS011;51687;52.160;5.298;2023-06-26T08:01:53;3.95;;;2.67;;
43994;SDS011;51687;52.160;5.298;2023-06-26T08:04:20;3.90;;;2.00;;
43994;SDS011;51687;52.160;5.298;2023-06-26T08:06:53;8.40;;;3.25;;
43994;SDS011;51687;52.160;5.298;2023-06-26T08:09:22;7.60;;;2.40;;
43994;SDS011;51687;52.160;5.298;2023-06-26T08:11:50;6.43;;;2.30;;
43994;SDS011;51687;52.160;5.298;2023-06-26T08:14:17;6.10;;;1.95;;
43994;SDS011;51687;52.160;5.298;2023-06-26T08:16:44;5.28;;;2.42;;
43994;SDS011;51687;52.160;5.298;2023-06-26T08:19:12;4.93;;;1.90;;
43994;SDS011;51687;52.160;5.298;2023-06-26T08:21:44;4.68;;;1.88;;
43994;SDS011;51687;52.160;5.298;2023-06-26T08:24:12;7.43;;;1.80;;
43994;SDS011;51687;52.160;5.298;2023-06-26T08:26:45;8.95;;;2.40;;
43994;SDS011;51687;52.160;5.298;2023-06-26T08:29:13;5.97;;;1.80;;
43994;SDS011;51687;52.160;5.298;2023-06-26T08:31:41;5.22;;;1.60;;
43994;SDS011;51687;52.160;5.298;2023-06-26T08:34:08;2.97;;;1.45;;
43994;SDS011;51687;52.160;5.298;2023-06-26T08:36:35;7.53;;;1.52;;
43994;SDS011;51687;52.160;5.298;2023-06-26T08:39:02;5.05;;;1.60;;
43994;SDS011;51687;52.160;5.298;2023-06-26T08:41:31;5.97;;;1.80;;
43994;SDS011;51687;52.160;5.298;2023-06-26T08:43:58;6.20;;;1.60;;
43994;SDS011;51687;52.160;5.298;2023-06-26T08:46:25;4.18;;;1.83;;
43994;SDS011;51687;52.160;5.298;2023-06-26T08:48:55;7.10;;;1.65;;
43994;SDS011;51687;52.160;5.298;2023-06-26T08:51:24;5.43;;;1.42;;
43994;SDS011;51687;52.160;5.298;2023-06-26T08:53:58;6.85;;;1.40;;
43994;SDS011;51687;52.160;5.298;2023-06-26T08:56:35;3.97;;;1.67;;
43994;SDS011;51687;52.160;5.298;2023-06-26T08:59:04;6.18;;;1.50;;
43994;SDS011;51687;52.160;5.298;2023-06-26T09:01:32;4.88;;;1.67;;
43994;SDS011;51687;52.160;5.298;2023-06-26T09:03:59;7.60;;;1.75;;
43994;SDS011;51687;52.160;5.298;2023-06-26T09:06:25;9.50;;;1.67;;
43994;SDS011;51687;52.160;5.298;2023-06-26T09:08:53;5.43;;;1.77;;
43994;SDS011;51687;52.160;5.298;2023-06-26T09:11:19;4.28;;;1.52;;
43994;SDS011;51687;52.160;5.298;2023-06-26T09:13:46;6.47;;;1.65;;
43994;SDS011;51687;52.160;5.298;2023-06-26T09:16:14;6.65;;;1.38;;
43994;SDS011;51687;52.160;5.298;2023-06-26T09:18:41;2.63;;;1.40;;
43994;SDS011;51687;52.160;5.298;2023-06-26T09:21:10;3.15;;;1.27;;
43994;SDS011;51687;52.160;5.298;2023-06-26T09:23:39;3.47;;;1.58;;
43994;SDS011;51687;52.160;5.298;2023-06-26T09:26:08;3.90;;;1.33;;
43994;SDS011;51687;52.160;5.298;2023-06-26T09:28:35;4.22;;;1.88;;
43994;SDS011;51687;52.160;5.298;2023-06-26T09:31:02;4.28;;;1.30;;
43994;SDS011;51687;52.160;5.298;2023-06-26T09:33:37;4.03;;;1.75;;
43994;SDS011;51687;52.160;5.298;2023-06-26T09:36:05;3.55;;;1.50;;
43994;SDS011;51687;52.160;5.298;2023-06-26T09:38:34;3.60;;;1.63;;
43994;SDS011;51687;52.160;5.298;2023-06-26T09:41:02;4.38;;;1.30;;
43994;SDS011;51687;52.160;5.298;2023-06-26T09:45:58;4.25;;;1.55;;
43994;SDS011;51687;52.160;5.298;2023-06-26T09:48:27;3.05;;;1.48;;
43994;SDS011;51687;52.160;5.298;2023-06-26T09:50:55;5.40;;;1.42;;
43994;SDS011;51687;52.160;5.298;2023-06-26T09:53:37;7.20;;;1.40;;
43994;SDS011;51687;52.160;5.298;2023-06-26T09:56:07;3.58;;;1.40;;
43994;SDS011;51687;52.160;5.298;2023-06-26T09:58:40;4.00;;;1.52;;
43994;SDS011;51687;52.160;5.298;2023-06-26T10:01:09;3.60;;;1.35;;
43994;SDS011;51687;52.160;5.298;2023-06-26T10:03:36;2.90;;;1.20;;
43994;SDS011;51687;52.160;5.298;2023-06-26T10:06:03;4.57;;;1.15;;
43994;SDS011;51687;52.160;5.298;2023-06-26T10:08:31;3.28;;;1.00;;
43994;SDS011;51687;52.160;5.298;2023-06-26T10:11:00;2.50;;;1.00;;
43994;SDS011;51687;52.160;5.298;2023-06-26T10:13:35;5.35;;;1.17;;
43994;SDS011;51687;52.160;5.298;2023-06-26T10:16:06;6.80;;;1.75;;
43994;SDS011;51687;52.160;5.298;2023-06-26T10:18:35;3.50;;;1.10;;
43994;SDS011;51687;52.160;5.298;2023-06-26T10:21:04;3.25;;;0.98;;
43994;SDS011;51687;52.160;5.298;2023-06-26T10:23:33;5.15;;;1.10;;
43994;SDS011;51687;52.160;5.298;2023-06-26T10:26:02;8.45;;;1.10;;
43994;SDS011;51687;52.160;5.298;2023-06-26T10:28:30;2.38;;;0.90;;
43994;SDS011;51687;52.160;5.298;2023-06-26T10:30:59;4.03;;;1.30;;
43994;SDS011;51687;52.160;5.298;2023-06-26T10:33:29;4.47;;;1.10;;
43994;SDS011;51687;52.160;5.298;2023-06-26T10:36:19;3.17;;;1.00;;
43994;SDS011;51687;52.160;5.298;2023-06-26T10:38:57;4.32;;;1.30;;
43994;SDS011;51687;52.160;5.298;2023-06-26T10:41:25;2.75;;;1.10;;
43994;SDS011;51687;52.160;5.298;2023-06-26T10:46:31;2.55;;;1.00;;
43994;SDS011;51687;52.160;5.298;2023-06-26T10:49:00;3.25;;;1.27;;
43994;SDS011;51687;52.160;5.298;2023-06-26T10:53:57;4.63;;;1.20;;
43994;SDS011;51687;52.160;5.298;2023-06-26T10:56:43;4.65;;;1.20;;
43994;SDS011;51687;52.160;5.298;2023-06-26T11:01:46;2.83;;;0.93;;
43994;SDS011;51687;52.160;5.298;2023-06-26T11:10:02;1.92;;;0.65;;
43994;SDS011;51687;52.160;5.298;2023-06-26T11:12:35;2.70;;;0.93;;
43994;SDS011;51687;52.160;5.298;2023-06-26T11:15:09;4.32;;;1.42;;
43994;SDS011;51687;52.160;5.298;2023-06-26T11:17:37;1.67;;;0.90;;
43994;SDS011;51687;52.160;5.298;2023-06-26T11:20:07;4.35;;;0.80;;
43994;SDS011;51687;52.160;5.298;2023-06-26T11:22:36;2.63;;;1.00;;
43994;SDS011;51687;52.160;5.298;2023-06-26T11:25:05;1.70;;;0.80;;
43994;SDS011;51687;52.160;5.298;2023-06-26T11:30:06;4.88;;;1.00;;
43994;SDS011;51687;52.160;5.298;2023-06-26T11:32:39;1.15;;;0.80;;
43994;SDS011;51687;52.160;5.298;2023-06-26T11:35:06;2.97;;;1.00;;
43994;SDS011;51687;52.160;5.298;2023-06-26T11:37:33;2.60;;;0.90;;
43994;SDS011;51687;52.160;5.298;2023-06-26T11:40:15;4.30;;;1.33;;
43994;SDS011;51687;52.160;5.298;2023-06-26T11:42:44;4.13;;;1.10;;
43994;SDS011;51687;52.160;5.298;2023-06-26T11:47:38;3.08;;;0.90;;
43994;SDS011;51687;52.160;5.298;2023-06-26T11:50:05;2.70;;;1.00;;
43994;SDS011;51687;52.160;5.298;2023-06-26T11:52:33;4.03;;;1.00;;
43994;SDS011;51687;52.160;5.298;2023-06-26T11:55:00;2.05;;;1.17;;
43994;SDS011;51687;52.160;5.298;2023-06-26T11:57:27;1.88;;;0.80;;
43994;SDS011;51687;52.160;5.298;2023-06-26T11:59:56;5.30;;;1.23;;
43994;SDS011;51687;52.160;5.298;2023-06-26T12:02:24;3.08;;;0.98;;
43994;SDS011;51687;52.160;5.298;2023-06-26T12:04:52;4.03;;;0.85;;
43994;SDS011;51687;52.160;5.298;2023-06-26T12:07:19;2.60;;;0.88;;
43994;SDS011;51687;52.160;5.298;2023-06-26T12:09:46;1.90;;;0.60;;
43994;SDS011;51687;52.160;5.298;2023-06-26T12:12:14;3.70;;;0.82;;
43994;SDS011;51687;52.160;5.298;2023-06-26T12:14:44;2.70;;;0.90;;
43994;SDS011;51687;52.160;5.298;2023-06-26T12:17:12;3.83;;;0.83;;
43994;SDS011;51687;52.160;5.298;2023-06-26T12:19:43;3.22;;;1.08;;
43994;SDS011;51687;52.160;5.298;2023-06-26T12:22:11;3.20;;;0.70;;
43994;SDS011;51687;52.160;5.298;2023-06-26T12:24:38;2.15;;;0.80;;
43994;SDS011;51687;52.160;5.298;2023-06-26T12:27:09;3.80;;;0.90;;
43994;SDS011;51687;52.160;5.298;2023-06-26T12:29:38;2.13;;;0.80;;
43994;SDS011;51687;52.160;5.298;2023-06-26T12:32:10;3.58;;;0.80;;
43994;SDS011;51687;52.160;5.298;2023-06-26T12:34:38;2.25;;;0.80;;
43994;SDS011;51687;52.160;5.298;2023-06-26T12:37:06;3.42;;;0.80;;
43994;SDS011;51687;52.160;5.298;2023-06-26T12:39:50;5.30;;;0.68;;
43994;SDS011;51687;52.160;5.298;2023-06-26T12:42:18;3.67;;;0.60;;
43994;SDS011;51687;52.160;5.298;2023-06-26T12:44:47;3.67;;;0.57;;
43994;SDS011;51687;52.160;5.298;2023-06-26T12:47:14;2.20;;;0.60;;
43994;SDS011;51687;52.160;5.298;2023-06-26T12:49:42;2.72;;;0.73;;
43994;SDS011;51687;52.160;5.298;2023-06-26T12:52:12;3.63;;;0.88;;
43994;SDS011;51687;52.160;5.298;2023-06-26T12:54:40;3.67;;;0.80;;
43994;SDS011;51687;52.160;5.298;2023-06-26T12:57:08;4.35;;;0.70;;
43994;SDS011;51687;52.160;5.298;2023-06-26T12:59:36;3.25;;;1.00;;
43994;SDS011;51687;52.160;5.298;2023-06-26T13:02:04;3.47;;;0.75;;
43994;SDS011;51687;52.160;5.298;2023-06-26T13:04:32;6.70;;;0.85;;
43994;SDS011;51687;52.160;5.298;2023-06-26T13:06:59;1.92;;;0.95;;
43994;SDS011;51687;52.160;5.298;2023-06-26T13:09:26;2.40;;;0.90;;
43994;SDS011;51687;52.160;5.298;2023-06-26T13:11:53;4.72;;;0.70;;
43994;SDS011;51687;52.160;5.298;2023-06-26T13:14:21;2.80;;;1.00;;
43994;SDS011;51687;52.160;5.298;2023-06-26T13:16:47;4.55;;;0.70;;
43994;SDS011;51687;52.160;5.298;2023-06-26T13:19:15;1.98;;;0.88;;
43994;SDS011;51687;52.160;5.298;2023-06-26T13:21:44;2.03;;;0.68;;
43994;SDS011;51687;52.160;5.298;2023-06-26T13:24:11;6.63;;;0.95;;
43994;SDS011;51687;52.160;5.298;2023-06-26T13:26:39;4.22;;;1.13;;
43994;SDS011;51687;52.160;5.298;2023-06-26T13:29:05;2.75;;;0.90;;
43994;SDS011;51687;52.160;5.298;2023-06-26T13:31:32;2.53;;;0.75;;
43994;SDS011;51687;52.160;5.298;2023-06-26T13:34:01;3.20;;;0.70;;
43994;SDS011;51687;52.160;5.298;2023-06-26T13:36:29;2.60;;;0.85;;
43994;SDS011;51687;52.160;5.298;2023-06-26T13:38:56;3.22;;;0.85;;
43994;SDS011;51687;52.160;5.298;2023-06-26T13:41:23;2.28;;;0.80;;
43994;SDS011;51687;52.160;5.298;2023-06-26T13:43:51;1.70;;;0.70;;
43994;SDS011;51687;52.160;5.298;2023-06-26T13:46:19;4.20;;;0.93;;
43994;SDS011;51687;52.160;5.298;2023-06-26T13:48:46;5.82;;;0.93;;
43994;SDS011;51687;52.160;5.298;2023-06-26T13:51:13;4.95;;;0.70;;
43994;SDS011;51687;52.160;5.298;2023-06-26T13:53:39;2.95;;;0.75;;
43994;SDS011;51687;52.160;5.298;2023-06-26T13:56:06;4.40;;;0.95;;
43994;SDS011;51687;52.160;5.298;2023-06-26T13:58:34;2.25;;;0.70;;
43994;SDS011;51687;52.160;5.298;2023-06-26T14:01:03;2.72;;;0.70;;
43994;SDS011;51687;52.160;5.298;2023-06-26T14:03:30;3.72;;;0.88;;
43994;SDS011;51687;52.160;5.298;2023-06-26T14:05:58;2.35;;;0.73;;
43994;SDS011;51687;52.160;5.298;2023-06-26T14:08:25;1.95;;;0.82;;
43994;SDS011;51687;52.160;5.298;2023-06-26T14:10:52;5.65;;;0.80;;
43994;SDS011;51687;52.160;5.298;2023-06-26T14:13:19;3.17;;;0.82;;
43994;SDS011;51687;52.160;5.298;2023-06-26T14:15:49;3.22;;;0.88;;
43994;SDS011;51687;52.160;5.298;2023-06-26T14:18:19;6.85;;;1.20;;
43994;SDS011;51687;52.160;5.298;2023-06-26T14:20:47;3.17;;;0.90;;
43994;SDS011;51687;52.160;5.298;2023-06-26T14:23:14;2.30;;;0.70;;
43994;SDS011;51687;52.160;5.298;2023-06-26T14:25:41;2.00;;;0.80;;
43994;SDS011;51687;52.160;5.298;2023-06-26T14:28:08;2.88;;;0.80;;
43994;SDS011;51687;52.160;5.298;2023-06-26T14:30:35;2.63;;;0.85;;
43994;SDS011;51687;52.160;5.298;2023-06-26T14:33:02;3.47;;;0.70;;
43994;SDS011;51687;52.160;5.298;2023-06-26T14:35:29;1.98;;;0.77;;
43994;SDS011;51687;52.160;5.298;2023-06-26T14:37:55;6.63;;;0.82;;
43994;SDS011;51687;52.160;5.298;2023-06-26T14:40:22;2.17;;;0.57;;
43994;SDS011;51687;52.160;5.298;2023-06-26T14:42:50;2.78;;;0.68;;
43994;SDS011;51687;52.160;5.298;2023-06-26T14:45:17;1.85;;;0.90;;
43994;SDS011;51687;52.160;5.298;2023-06-26T14:47:44;3.80;;;0.90;;
43994;SDS011;51687;52.160;5.298;2023-06-26T14:50:11;1.77;;;0.70;;
43994;SDS011;51687;52.160;5.298;2023-06-26T14:52:37;3.33;;;1.27;;
43994;SDS011;51687;52.160;5.298;2023-06-26T14:55:04;2.15;;;0.88;;
43994;SDS011;51687;52.160;5.298;2023-06-26T14:57:34;2.38;;;0.90;;
43994;SDS011;51687;52.160;5.298;2023-06-26T15:00:01;3.38;;;0.80;;
43994;SDS011;51687;52.160;5.298;2023-06-26T15:04:56;2.28;;;0.73;;
43994;SDS011;51687;52.160;5.298;2023-06-26T15:07:23;2.20;;;1.05;;
43994;SDS011;51687;52.160;5.298;2023-06-26T15:09:50;1.63;;;0.90;;
43994;SDS011;51687;52.160;5.298;2023-06-26T15:12:16;2.25;;;0.75;;
43994;SDS011;51687;52.160;5.298;2023-06-26T15:14:43;4.90;;;1.30;;
43994;SDS011;51687;52.160;5.298;2023-06-26T15:17:10;6.03;;;1.02;;
43994;SDS011;51687;52.160;5.298;2023-06-26T15:19:37;1.70;;;0.80;;
43994;SDS011;51687;52.160;5.298;2023-06-26T15:22:05;4.47;;;0.98;;
43994;SDS011;51687;52.160;5.298;2023-06-26T15:24:32;3.90;;;0.80;;
43994;SDS011;51687;52.160;5.298;2023-06-26T15:26:58;7.05;;;1.15;;
43994;SDS011;51687;52.160;5.298;2023-06-26T15:29:25;3.88;;;1.10;;
43994;SDS011;51687;52.160;5.298;2023-06-26T15:31:53;3.55;;;0.90;;
43994;SDS011;51687;52.160;5.298;2023-06-26T15:34:20;1.58;;;0.70;;
43994;SDS011;51687;52.160;5.298;2023-06-26T15:36:47;1.83;;;0.80;;
43994;SDS011;51687;52.160;5.298;2023-06-26T15:39:15;2.88;;;0.93;;
43994;SDS011;51687;52.160;5.298;2023-06-26T15:41:42;4.40;;;0.98;;
43994;SDS011;51687;52.160;5.298;2023-06-26T15:44:10;2.90;;;0.90;;